Sunday, December 17, 2017, 2:45 PM EST
Back to Local

KELZ, Wellsville Municipal Airport

Location: Wellsville, NY, United States Lat: 42.1
Local Time: 2:45 PM EST (19:45 GMT) Lon: -78
Time Zone: US/Eastern Elev: 2122 ft

Show me the last for .
Show Decoded

2017-12-17 13:56 METAR KELZ 171856Z AUTO 00000KT 6SM HZ CLR M01/M04 A3011 RMK AO2 SLP224
                 T10061044 $ =
2017-12-17 12:56 METAR KELZ 171756Z AUTO 00000KT 5SM HZ FEW008 M01/M05 A3012 RMK AO2 SLP228 I6000
                 T10111050 11011 21056 56019 $ =
2017-12-17 12:54 METAR KELZ 171754Z AUTO 00000KT 5SM HZ FEW008 M01/M05 A3012 RMK AO2 $ =
2017-12-17 11:56 METAR KELZ 171656Z AUTO 00000KT 6SM HZ SCT041 M02/M06 A3016 RMK AO2 SLP244
                 T10221056 $ =
2017-12-17 11:16 METAR KELZ 171616Z AUTO 00000KT 6SM HZ SCT004 M03/M06 A3017 RMK AO2 T10281056 $
                 =
2017-12-17 11:06 METAR KELZ 171606Z AUTO 00000KT 5SM HZ BKN004 M03/M06 A3018 RMK AO2 T10281061 $
                 =
2017-12-17 10:56 METAR KELZ 171556Z AUTO 00000KT 5SM HZ BKN003 M03/M06 A3018 RMK AO2 SLP250
                 T10281061 $ =
2017-12-17 10:04 METAR KELZ 171504Z AUTO 00000KT 3SM BR OVC002 M04/M06 A3018 RMK AO2 T10391061 $
                 =
2017-12-17 09:56 METAR KELZ 171456Z AUTO 00000KT 1SM HZ OVC002 M04/M07 A3018 RMK AO2 SLP250 I3000
                 T10391067 51008 $ =
2017-12-17 09:46 METAR KELZ 171446Z AUTO 00000KT 1/4SM FZFG OVC002 M04/M06 A3018 RMK AO2
                 T10391061 $ =
2017-12-17 08:56 METAR KELZ 171356Z AUTO 00000KT 1/2SM FZFG VV002 M05/M07 A3017 RMK AO2 SLP250
                 I1000 T10501072 $ =
2017-12-17 08:41 METAR KELZ 171341Z AUTO 00000KT 1/2SM FZFG VV002 M05/M07 A3018 RMK AO2 I1000
                 T10501072 $ =
2017-12-17 08:04 METAR KELZ 171304Z AUTO 00000KT 1/4SM FZFG VV003 M05/M07 A3018 RMK AO2 T10501067
                 $ =
2017-12-17 07:56 METAR KELZ 171256Z AUTO 00000KT 1SM BR OVC002 M06/M07 A3018 RMK AO2 SLP251
                 T10561072 $ =
2017-12-17 07:33 METAR KELZ 171233Z AUTO 00000KT 1SM BR VV003 M06/M07 A3017 RMK AO2 T10561072 $ =
2017-12-17 07:23 METAR KELZ 171223Z AUTO 00000KT 2 1/2SM BR OVC002 M06/M07 A3016 RMK AO2 VIS 1
                 1/2V3 T10561072 $ =
2017-12-17 06:56 METAR KELZ 171156Z AUTO 00000KT 5SM BR OVC003 M06/M07 A3015 RMK AO2 SLP242 70005
                 T10561072 11044 21061 53004 $ =
2017-12-17 05:56 METAR KELZ 171056Z AUTO 00000KT 10SM OVC003 M06/M08 A3015 RMK AO2 SLP239
                 T10561078 $ =
2017-12-17 05:48 METAR KELZ 171048Z AUTO 00000KT 10SM OVC003 M06/M08 A3014 RMK AO2 T10561078 $ =
2017-12-17 04:56 METAR KELZ 170956Z AUTO 00000KT 9SM OVC004 M06/M08 A3013 RMK AO2 SLP233
                 T10561083 $ =
2017-12-17 03:56 METAR KELZ 170856Z AUTO 00000KT 10SM OVC005 M06/M08 A3014 RMK AO2 SLP237
                 T10561078 50009 $ =
2017-12-17 02:56 METAR KELZ 170756Z AUTO 36003KT 9SM OVC006 M06/M08 A3015 RMK AO2 SLP241
                 T10561078 $ =
2017-12-17 01:56 METAR KELZ 170656Z AUTO 00000KT 9SM OVC006 M05/M07 A3012 RMK AO2 SLP230
                 T10501072 $ =
2017-12-17 00:56 METAR KELZ 170556Z AUTO 00000KT 10SM OVC006 M04/M07 A3011 RMK AO2 SLP225
                 T10441072 11033 21050 53008 $ =
2017-12-16 23:56 METAR KELZ 170456Z AUTO 03003KT 10SM OVC007 M04/M07 A3010 RMK AO2 SLP220
                 T10441072 410111056 $ =
2017-12-16 22:56 METAR KELZ 170356Z AUTO 01003KT 10SM OVC008 M04/M07 A3009 RMK AO2 SLP218
                 T10441067 $ =
2017-12-16 22:07 METAR KELZ 170307Z AUTO 01003KT 9SM OVC009 M04/M07 A3009 RMK AO2 T10441067 $ =
2017-12-16 21:56 METAR KELZ 170256Z AUTO 01004KT 9SM OVC010 M04/M07 A3008 RMK AO2 SLP217
                 T10441067 50004 $ =
2017-12-16 21:40 METAR KELZ 170240Z AUTO 01005KT 9SM OVC010 M04/M07 A3009 RMK AO2 T10441067 $ =
2017-12-16 20:56 METAR KELZ 170156Z AUTO 00000KT 10SM OVC009 M04/M07 A3009 RMK AO2 SLP218
                 T10391067 $ =
2017-12-16 20:54 METAR KELZ 170154Z AUTO 00000KT 10SM OVC009 M04/M07 A3009 RMK AO2 $ =
2017-12-16 19:56 METAR KELZ 170056Z AUTO 00000KT 10SM BKN011 OVC020 M04/M07 A3007 RMK AO2 SLP213
                 T10391067 $ =
2017-12-16 18:56 METAR KELZ 162356Z AUTO 00000KT 10SM OVC012 M04/M07 A3005 RMK AO2 SLP207 60003
                 T10391067 11028 21039 53030 $ =
2017-12-16 18:06 METAR KELZ 162306Z AUTO 00000KT 10SM OVC011 M04/M06 A3003 RMK AO2 T10391061 $ =
2017-12-16 17:56 METAR KELZ 162256Z AUTO 00000KT 10SM BKN008 OVC013 M04/M06 A3003 RMK AO2 SLP199
                 T10391061 $ =
2017-12-16 17:16 METAR KELZ 162216Z AUTO 32003KT 10SM BKN009 BKN025 OVC042 M03/M07 A3000 RMK AO2
                 T10331067 $ =
2017-12-16 17:04 METAR KELZ 162204Z AUTO 31003KT 10SM SCT009 BKN026 OVC038 M03/M07 A2999 RMK AO2
                 T10331067 $ =
2017-12-16 16:56 METAR KELZ 162156Z AUTO 33004KT 9SM BKN009 BKN025 OVC036 M03/M07 A2999 RMK AO2
                 SNE53 SLP185 P0000 T10331067 $ =
2017-12-16 16:48 METAR KELZ 162148Z AUTO 32004KT 6SM -SN BKN009 BKN026 OVC037 M03/M07 A2999 RMK
                 AO2 P0000 T10331067 $ =
2017-12-16 16:39 METAR KELZ 162139Z AUTO 34006KT 2SM -SN BKN010 OVC024 M03/M07 A2998 RMK AO2
                 P0000 T10331067 $ =
2017-12-16 16:35 METAR KELZ 162135Z AUTO 33006KT 1 1/4SM -SN BKN008 BKN012 OVC027 M03/M07 A2998
                 RMK AO2 P0000 T10331067 $ =
2017-12-16 16:13 METAR KELZ 162113Z AUTO 34005KT 1 1/4SM -SN FEW007 BKN029 OVC041 M03/M06 A2997
                 RMK AO2 P0000 T10331061 $ =
2017-12-16 16:08 METAR KELZ 162108Z AUTO 34006KT 1 3/4SM -SN SCT019 BKN033 OVC055 M03/M06 A2996
                 RMK AO2 P0000 T10331061 $ =
2017-12-16 15:56 METAR KELZ 162056Z AUTO 33004KT 2SM -SN BKN019 BKN040 OVC055 M03/M06 A2996 RMK
                 AO2 SLP176 P0001 60003 T10331061 53025 $ =
2017-12-16 15:33 METAR KELZ 162033Z AUTO 34005KT 4SM -SN FEW012 OVC018 M03/M06 A2995 RMK AO2
                 P0000 T10281061 $ =
2017-12-16 15:25 METAR KELZ 162025Z AUTO 35004KT 2 1/2SM -SN OVC016 M03/M06 A2994 RMK AO2 P0000
                 T10331061 $ =
2017-12-16 15:15 METAR KELZ 162015Z AUTO 34005KT 2SM -SN OVC014 M03/M06 A2994 RMK AO2 P0000
                 T10281061 $ =
2017-12-16 14:56 METAR KELZ 161956Z AUTO 34004KT 1 3/4SM -SN OVC012 M03/M06 A2993 RMK AO2 SLP163
                 P0001 T10281061 $ =

Support USWX by starting your Amazon purchase here.